Time;durP1;ratioP1;P1;durP2;ratioP2;P2;SDS_P1;SDS_P2;PMS_P1;PMS_P2;Temp;Humidity;BMP_temperature;BMP_pressure;BME280_temperature;BME280_humidity;BME280_pressure;Samples;Min_cycle;Max_cycle;Signal;HPM_P1;HPM_P2
2022/03/03 00:02:14;;;;;;;13.17;8.57;;;;;;;;;;5107678;28;20278;-75
2022/03/03 00:04:41;;;;;;;16.63;8.73;;;;;;;;;;5106524;28;20323;-75
2022/03/03 00:07:09;;;;;;;13.87;8.53;;;;;;;;;;5106287;28;20611;-76
2022/03/03 00:09:36;;;;;;;13.67;7.97;;;;;;;;;;5114228;28;20282;-75
2022/03/03 00:12:03;;;;;;;16.97;8.57;;;;;;;;;;5106164;28;20296;-75
2022/03/03 00:14:30;;;;;;;13.33;7.67;;;;;;;;;;5113025;28;20225;-75
2022/03/03 00:16:58;;;;;;;17.07;7.97;;;;;;;;;;5103447;28;20201;-75
2022/03/03 00:19:26;;;;;;;15.93;7.83;;;;;;;;;;5109446;28;20249;-75
2022/03/03 00:21:53;;;;;;;13.83;7.97;;;;;;;;;;5111562;28;20285;-75
2022/03/03 00:24:21;;;;;;;11.93;6.83;;;;;;;;;;5114047;28;20954;-75
2022/03/03 00:26:48;;;;;;;14.33;7.70;;;;;;;;;;5101252;28;20206;-75
2022/03/03 00:29:15;;;;;;;12.00;7.70;;;;;;;;;;5106540;28;20213;-76
2022/03/03 00:31:43;;;;;;;14.60;7.30;;;;;;;;;;5104703;28;20683;-75
2022/03/03 00:34:10;;;;;;;12.70;7.17;;;;;;;;;;5106758;28;20225;-75
2022/03/03 00:36:38;;;;;;;11.63;7.33;;;;;;;;;;5107503;28;20231;-75
2022/03/03 00:39:06;;;;;;;12.07;7.13;;;;;;;;;;5114970;28;20220;-75
2022/03/03 00:41:33;;;;;;;10.30;6.87;;;;;;;;;;5107344;28;20226;-75
2022/03/03 00:44:01;;;;;;;10.33;6.23;;;;;;;;;;5108840;28;20290;-75
2022/03/03 00:46:28;;;;;;;13.27;7.33;;;;;;;;;;5111869;28;20314;-76
2022/03/03 00:48:55;;;;;;;14.30;6.40;;;;;;;;;;5113290;28;20241;-76
2022/03/03 00:51:23;;;;;;;14.93;6.90;;;;;;;;;;5110575;28;20233;-76
2022/03/03 00:53:51;;;;;;;10.67;6.50;;;;;;;;;;5114533;28;20293;-76
2022/03/03 00:56:19;;;;;;;11.07;6.57;;;;;;;;;;5107954;28;20290;-75
2022/03/03 00:58:46;;;;;;;12.33;6.00;;;;;;;;;;5107643;28;20253;-75
2022/03/03 01:01:14;;;;;;;12.10;6.27;;;;;;;;;;5104046;28;20222;-75
2022/03/03 01:03:41;;;;;;;13.53;6.83;;;;;;;;;;5109997;28;20225;-75
2022/03/03 01:06:09;;;;;;;10.13;6.23;;;;;;;;;;5107611;28;20238;-75
2022/03/03 01:08:36;;;;;;;15.73;5.83;;;;;;;;;;5097884;28;20370;-75
2022/03/03 01:11:05;;;;;;;10.47;6.57;;;;;;;;;;5094390;28;20243;-75
2022/03/03 01:13:32;;;;;;;10.70;6.43;;;;;;;;;;5093706;28;20716;-75
2022/03/03 01:15:59;;;;;;;12.23;6.20;;;;;;;;;;5088812;28;20281;-75
2022/03/03 01:18:27;;;;;;;14.80;6.40;;;;;;;;;;5093402;28;20709;-75
2022/03/03 01:20:55;;;;;;;12.60;7.00;;;;;;;;;;5098824;28;20232;-75
2022/03/03 01:23:22;;;;;;;10.50;6.40;;;;;;;;;;5113818;28;20190;-75
2022/03/03 01:25:49;;;;;;;13.57;6.73;;;;;;;;;;5108161;28;20663;-75
2022/03/03 01:28:18;;;;;;;12.30;6.67;;;;;;;;;;5094093;28;20285;-75
2022/03/03 01:30:45;;;;;;;13.70;7.00;;;;;;;;;;5102799;28;20289;-76
2022/03/03 01:33:13;;;;;;;13.80;6.93;;;;;;;;;;5101295;28;20274;-75
2022/03/03 01:35:40;;;;;;;15.70;7.00;;;;;;;;;;5098553;28;20635;-75
2022/03/03 01:38:07;;;;;;;12.00;7.00;;;;;;;;;;5093679;28;20218;-75
2022/03/03 01:40:35;;;;;;;14.00;6.77;;;;;;;;;;5093866;28;20239;-75
2022/03/03 01:43:02;;;;;;;14.20;7.33;;;;;;;;;;5098818;28;20428;-75
2022/03/03 01:45:31;;;;;;;11.20;6.40;;;;;;;;;;5109062;28;20232;-75
2022/03/03 01:47:58;;;;;;;14.30;7.33;;;;;;;;;;5097723;28;20289;-75
2022/03/03 01:50:25;;;;;;;11.83;6.77;;;;;;;;;;5097331;28;20238;-75
2022/03/03 01:52:52;;;;;;;14.03;7.00;;;;;;;;;;5102956;28;20199;-76
2022/03/03 01:55:19;;;;;;;12.83;7.33;;;;;;;;;;5106488;28;20233;-75
2022/03/03 01:57:49;;;;;;;14.27;7.60;;;;;;;;;;5093339;28;20194;-75
2022/03/03 02:00:17;;;;;;;18.17;8.17;;;;;;;;;;5099249;28;20304;-75
2022/03/03 02:02:45;;;;;;;19.43;8.33;;;;;;;;;;5111652;28;20202;-75
2022/03/03 02:05:13;;;;;;;17.13;8.60;;;;;;;;;;5108964;28;20233;-75
2022/03/03 02:07:40;;;;;;;15.90;8.93;;;;;;;;;;5097401;28;20241;-75
2022/03/03 02:10:08;;;;;;;16.83;8.80;;;;;;;;;;5104695;28;20294;-75
2022/03/03 02:12:35;;;;;;;18.83;8.40;;;;;;;;;;5098599;28;20288;-75
2022/03/03 02:15:03;;;;;;;18.47;8.90;;;;;;;;;;5106334;28;20202;-75
2022/03/03 02:17:30;;;;;;;20.67;9.37;;;;;;;;;;5093779;28;20256;-75
2022/03/03 02:19:59;;;;;;;18.40;9.77;;;;;;;;;;5102077;28;20215;-75
2022/03/03 02:22:27;;;;;;;18.30;9.47;;;;;;;;;;5107954;28;20292;-75
2022/03/03 02:24:54;;;;;;;17.17;9.03;;;;;;;;;;5112343;28;20289;-75
2022/03/03 02:27:22;;;;;;;16.87;9.43;;;;;;;;;;5100143;28;20233;-75
2022/03/03 02:29:50;;;;;;;15.90;9.07;;;;;;;;;;5104128;28;20226;-75
2022/03/03 02:32:18;;;;;;;18.37;9.00;;;;;;;;;;5091643;28;20281;-75
2022/03/03 02:34:48;;;;;;;21.97;9.43;;;;;;;;;;5100754;28;20575;-75
2022/03/03 02:37:16;;;;;;;14.47;8.23;;;;;;;;;;5110857;28;20676;-75
2022/03/03 02:39:44;;;;;;;17.07;8.90;;;;;;;;;;5110772;28;20711;-75
2022/03/03 02:42:11;;;;;;;20.90;9.00;;;;;;;;;;5108359;28;20210;-75
2022/03/03 02:44:39;;;;;;;17.77;9.57;;;;;;;;;;5104412;28;20198;-75
2022/03/03 02:47:06;;;;;;;18.20;9.20;;;;;;;;;;5109244;28;20229;-75
2022/03/03 02:49:33;;;;;;;20.33;9.80;;;;;;;;;;5092452;28;20329;-75
2022/03/03 02:52:00;;;;;;;17.93;9.97;;;;;;;;;;5097519;28;20292;-75
2022/03/03 02:54:27;;;;;;;21.27;10.43;;;;;;;;;;5109618;28;20284;-75
2022/03/03 02:59:41;;;;;;;21.93;10.67;;;;;;;;;;5095299;28;20239;-76
2022/03/03 03:02:08;;;;;;;23.03;11.23;;;;;;;;;;5104474;28;20288;-75
2022/03/03 03:04:35;;;;;;;19.53;10.63;;;;;;;;;;5102532;28;20391;-75
2022/03/03 03:07:03;;;;;;;17.00;10.70;;;;;;;;;;5096405;28;20297;-75
2022/03/03 03:09:30;;;;;;;22.00;11.83;;;;;;;;;;5102848;28;20205;-75
2022/03/03 03:11:59;;;;;;;21.47;11.63;;;;;;;;;;5111581;28;20293;-75
2022/03/03 03:14:26;;;;;;;24.20;12.33;;;;;;;;;;5097749;28;20230;-75
2022/03/03 03:16:53;;;;;;;24.03;12.50;;;;;;;;;;5093272;28;20240;-75
2022/03/03 03:19:20;;;;;;;21.83;11.83;;;;;;;;;;5101697;28;20301;-75
2022/03/03 03:21:48;;;;;;;20.40;12.03;;;;;;;;;;5103888;28;20263;-75
2022/03/03 03:24:15;;;;;;;20.90;12.63;;;;;;;;;;5093178;28;20319;-75
2022/03/03 03:26:42;;;;;;;19.37;12.07;;;;;;;;;;5092086;28;20297;-75
2022/03/03 03:29:11;;;;;;;21.27;12.23;;;;;;;;;;5091602;28;20282;-75
2022/03/03 03:31:38;;;;;;;24.00;12.50;;;;;;;;;;5102047;28;20226;-75
2022/03/03 03:34:05;;;;;;;22.10;12.77;;;;;;;;;;5108278;28;20281;-75
2022/03/03 03:36:32;;;;;;;22.83;13.27;;;;;;;;;;5091492;28;20272;-76
2022/03/03 03:38:59;;;;;;;23.50;12.60;;;;;;;;;;5092528;28;20226;-75
2022/03/03 03:41:27;;;;;;;22.93;13.37;;;;;;;;;;5091734;28;20284;-75
2022/03/03 03:43:54;;;;;;;23.73;13.93;;;;;;;;;;5101834;28;20669;-75
2022/03/03 03:46:23;;;;;;;23.20;13.00;;;;;;;;;;5108616;28;20272;-75
2022/03/03 03:48:50;;;;;;;22.60;12.63;;;;;;;;;;5105379;28;20286;-75
2022/03/03 03:51:17;;;;;;;20.27;13.47;;;;;;;;;;5111568;28;20243;-75
2022/03/03 03:53:44;;;;;;;24.23;12.97;;;;;;;;;;5102144;28;20238;-76
2022/03/03 03:56:11;;;;;;;25.00;13.53;;;;;;;;;;5093909;28;20290;-76
2022/03/03 03:58:39;;;;;;;27.53;13.87;;;;;;;;;;5110751;28;20224;-75
2022/03/03 04:01:06;;;;;;;25.40;13.77;;;;;;;;;;5099249;28;20772;-76
2022/03/03 04:03:34;;;;;;;27.00;14.03;;;;;;;;;;5096406;28;20226;-75
2022/03/03 04:06:01;;;;;;;25.93;13.60;;;;;;;;;;5096072;28;20330;-75
2022/03/03 04:08:29;;;;;;;24.47;13.23;;;;;;;;;;5092366;28;20281;-75
2022/03/03 04:10:56;;;;;;;24.10;13.80;;;;;;;;;;5105033;28;20235;-75
2022/03/03 04:13:23;;;;;;;22.43;13.30;;;;;;;;;;5091940;28;20277;-75
2022/03/03 04:15:50;;;;;;;23.03;12.63;;;;;;;;;;5093374;28;20233;-75
2022/03/03 04:18:17;;;;;;;25.13;13.00;;;;;;;;;;5091483;28;20199;-75
2022/03/03 04:20:46;;;;;;;21.53;12.57;;;;;;;;;;5105905;28;20244;-75
2022/03/03 04:23:16;;;;;;;24.93;13.57;;;;;;;;;;5090701;28;20244;-75
2022/03/03 04:25:44;;;;;;;22.93;13.23;;;;;;;;;;5095791;28;20276;-75
2022/03/03 04:28:11;;;;;;;22.27;11.97;;;;;;;;;;5081048;28;20230;-75
2022/03/03 04:30:38;;;;;;;25.13;13.23;;;;;;;;;;5105866;28;20253;-75
2022/03/03 04:33:05;;;;;;;26.63;12.27;;;;;;;;;;5101699;28;20281;-75
2022/03/03 04:35:32;;;;;;;23.07;11.73;;;;;;;;;;5103653;28;20257;-75
2022/03/03 04:38:01;;;;;;;22.23;11.30;;;;;;;;;;5107355;28;20290;-75
2022/03/03 04:40:28;;;;;;;28.37;12.57;;;;;;;;;;5101114;28;20328;-75
2022/03/03 04:42:55;;;;;;;26.77;12.83;;;;;;;;;;5101497;28;20288;-75
2022/03/03 04:45:22;;;;;;;21.70;11.50;;;;;;;;;;5102916;28;20205;-75
2022/03/03 04:47:50;;;;;;;25.53;12.17;;;;;;;;;;5101677;28;20229;-75
2022/03/03 04:50:17;;;;;;;21.40;11.80;;;;;;;;;;5104101;28;20285;-76
2022/03/03 04:52:44;;;;;;;23.67;12.43;;;;;;;;;;5097790;28;20287;-75
2022/03/03 04:55:13;;;;;;;20.10;10.80;;;;;;;;;;5097183;28;20290;-75
2022/03/03 04:57:40;;;;;;;20.20;11.53;;;;;;;;;;5094751;28;20202;-75
2022/03/03 05:00:09;;;;;;;18.43;11.27;;;;;;;;;;5112620;28;20250;-75
2022/03/03 05:02:36;;;;;;;22.80;11.70;;;;;;;;;;5098951;28;20220;-75
2022/03/03 05:05:03;;;;;;;25.00;11.33;;;;;;;;;;5094495;28;20334;-75
2022/03/03 05:07:31;;;;;;;19.43;11.10;;;;;;;;;;5098322;28;20285;-75
2022/03/03 05:09:58;;;;;;;25.80;11.67;;;;;;;;;;5105281;28;20241;-75
2022/03/03 05:12:26;;;;;;;19.80;11.03;;;;;;;;;;5113438;28;20289;-75
2022/03/03 05:14:54;;;;;;;23.00;10.57;;;;;;;;;;5112839;28;20284;-75
2022/03/03 05:17:21;;;;;;;19.97;10.97;;;;;;;;;;5104847;28;20252;-75
2022/03/03 05:19:48;;;;;;;24.50;11.77;;;;;;;;;;5107916;28;20301;-75
2022/03/03 05:22:15;;;;;;;22.63;11.47;;;;;;;;;;5096006;28;20231;-75
2022/03/03 05:24:49;;;;;;;22.07;11.20;;;;;;;;;;5099911;28;20234;-75
2022/03/03 05:27:16;;;;;;;18.53;10.80;;;;;;;;;;5097876;28;20271;-75
2022/03/03 05:29:45;;;;;;;22.43;10.63;;;;;;;;;;5097389;28;20761;-75
2022/03/03 05:32:12;;;;;;;20.57;9.63;;;;;;;;;;5097862;28;20281;-75
2022/03/03 05:34:39;;;;;;;17.53;10.57;;;;;;;;;;5109714;28;20290;-75
2022/03/03 05:37:07;;;;;;;18.23;9.83;;;;;;;;;;5093434;28;20285;-75
2022/03/03 05:39:34;;;;;;;24.80;11.03;;;;;;;;;;5095532;28;20304;-75
2022/03/03 05:42:01;;;;;;;20.73;10.50;;;;;;;;;;5099507;28;20289;-75
2022/03/03 05:44:29;;;;;;;19.93;10.80;;;;;;;;;;5104700;28;20263;-75
2022/03/03 05:46:59;;;;;;;18.67;10.50;;;;;;;;;;5105386;28;20203;-75
2022/03/03 05:49:27;;;;;;;19.33;9.93;;;;;;;;;;5098108;28;20285;-75
2022/03/03 05:51:54;;;;;;;17.77;9.97;;;;;;;;;;5110295;28;20213;-75
2022/03/03 05:54:21;;;;;;;18.07;10.17;;;;;;;;;;5101124;28;20606;-75
2022/03/03 05:56:49;;;;;;;20.27;9.87;;;;;;;;;;5105625;28;20610;-75
2022/03/03 05:59:17;;;;;;;18.00;9.43;;;;;;;;;;5098047;28;20688;-75
2022/03/03 06:01:45;;;;;;;18.83;9.47;;;;;;;;;;5108265;28;20199;-75
2022/03/03 06:04:16;;;;;;;19.53;9.50;;;;;;;;;;5098616;28;20202;-75
2022/03/03 06:06:46;;;;;;;16.37;9.43;;;;;;;;;;5088971;28;20206;-75
2022/03/03 06:09:15;;;;;;;20.30;9.13;;;;;;;;;;5100914;28;20298;-75
2022/03/03 06:11:44;;;;;;;19.30;9.50;;;;;;;;;;5107935;28;20647;-75
2022/03/03 06:14:12;;;;;;;18.43;9.47;;;;;;;;;;5113778;28;20236;-75
2022/03/03 06:16:41;;;;;;;16.90;9.13;;;;;;;;;;5098893;28;20730;-76
2022/03/03 06:19:09;;;;;;;16.70;8.87;;;;;;;;;;5105571;28;20202;-75
2022/03/03 06:21:37;;;;;;;18.40;9.20;;;;;;;;;;5096754;28;20614;-76
2022/03/03 06:24:05;;;;;;;17.23;9.00;;;;;;;;;;5093021;28;20292;-75
2022/03/03 06:26:32;;;;;;;18.80;9.33;;;;;;;;;;5103734;28;20202;-75
2022/03/03 06:29:00;;;;;;;20.90;9.03;;;;;;;;;;5097204;28;20282;-74
2022/03/03 06:31:27;;;;;;;14.50;8.40;;;;;;;;;;5105725;28;20628;-75
2022/03/03 06:33:55;;;;;;;16.80;8.23;;;;;;;;;;5103436;28;20211;-75
2022/03/03 06:36:22;;;;;;;15.07;8.43;;;;;;;;;;5112488;28;20604;-75
2022/03/03 06:38:50;;;;;;;13.33;8.00;;;;;;;;;;5099902;28;20230;-75
2022/03/03 06:41:18;;;;;;;18.30;9.47;;;;;;;;;;5100918;28;20215;-75
2022/03/03 06:43:45;;;;;;;17.53;8.77;;;;;;;;;;5091798;28;20224;-76
2022/03/03 06:46:18;;;;;;;16.53;8.33;;;;;;;;;;5094106;28;20202;-76
2022/03/03 06:48:45;;;;;;;15.97;8.60;;;;;;;;;;5092076;28;20230;-76
2022/03/03 06:51:15;;;;;;;19.73;8.90;;;;;;;;;;5095394;28;20204;-76
2022/03/03 06:53:45;;;;;;;15.53;9.37;;;;;;;;;;5091765;28;20715;-76
2022/03/03 06:56:14;;;;;;;16.33;8.83;;;;;;;;;;5092433;28;20296;-76
2022/03/03 06:58:42;;;;;;;17.87;9.00;;;;;;;;;;5092402;28;20223;-75
2022/03/03 07:01:10;;;;;;;15.80;8.87;;;;;;;;;;5103853;28;20217;-75
2022/03/03 07:03:37;;;;;;;16.83;8.57;;;;;;;;;;5107898;28;20615;-76
2022/03/03 07:06:05;;;;;;;15.83;8.63;;;;;;;;;;5109237;28;20260;-75
2022/03/03 07:08:33;;;;;;;16.93;9.03;;;;;;;;;;5111623;28;20243;-76
2022/03/03 07:11:00;;;;;;;14.37;8.63;;;;;;;;;;5111650;28;20238;-76
2022/03/03 07:13:29;;;;;;;15.40;8.83;;;;;;;;;;5111907;28;20241;-76
2022/03/03 07:16:14;;;;;;;16.83;8.20;;;;;;;;;;5111534;28;20207;-76
2022/03/03 07:18:44;;;;;;;17.87;8.63;;;;;;;;;;5111539;28;20298;-75
2022/03/03 07:21:14;;;;;;;15.73;9.20;;;;;;;;;;5111764;28;20221;-75
2022/03/03 07:23:42;;;;;;;17.40;9.10;;;;;;;;;;5112621;28;20231;-76
2022/03/03 07:26:10;;;;;;;15.97;8.43;;;;;;;;;;5098432;28;20205;-75
2022/03/03 07:28:40;;;;;;;14.93;8.23;;;;;;;;;;5109889;28;20702;-75
2022/03/03 07:31:08;;;;;;;16.50;7.73;;;;;;;;;;5093266;28;20693;-76
2022/03/03 07:33:44;;;;;;;15.00;8.73;;;;;;;;;;5091180;28;20238;-76
2022/03/03 07:36:14;;;;;;;15.37;8.47;;;;;;;;;;5089714;28;20236;-75
2022/03/03 07:38:42;;;;;;;14.20;7.73;;;;;;;;;;5091562;28;20226;-75
2022/03/03 07:41:09;;;;;;;13.20;8.00;;;;;;;;;;5103807;28;20213;-76
2022/03/03 07:43:36;;;;;;;13.73;7.77;;;;;;;;;;5112033;28;20664;-75
2022/03/03 07:46:05;;;;;;;12.17;7.30;;;;;;;;;;5111945;28;20222;-76
2022/03/03 07:48:33;;;;;;;15.67;8.20;;;;;;;;;;5111862;28;20756;-76
2022/03/03 07:51:01;;;;;;;14.40;7.67;;;;;;;;;;5112268;28;20277;-76
2022/03/03 07:53:28;;;;;;;15.23;7.47;;;;;;;;;;5112217;28;20285;-76
2022/03/03 07:55:58;;;;;;;16.73;7.87;;;;;;;;;;5112194;28;20246;-76
2022/03/03 07:58:31;;;;;;;14.77;7.43;;;;;;;;;;5110905;28;20249;-76
2022/03/03 08:01:00;;;;;;;10.33;6.27;;;;;;;;;;5112173;28;20285;-76
2022/03/03 08:03:29;;;;;;;12.53;6.53;;;;;;;;;;5112011;28;20677;-76
2022/03/03 08:05:57;;;;;;;14.07;6.53;;;;;;;;;;5112220;28;20255;-76
2022/03/03 08:08:26;;;;;;;11.13;6.30;;;;;;;;;;5111815;28;20204;-76
2022/03/03 08:10:57;;;;;;;9.37;6.60;;;;;;;;;;5112124;28;20202;-76
2022/03/03 08:13:27;;;;;;;12.03;6.50;;;;;;;;;;5096690;28;20286;-76
2022/03/03 08:15:54;;;;;;;12.03;6.57;;;;;;;;;;5091538;28;20263;-75
2022/03/03 08:18:22;;;;;;;11.83;6.33;;;;;;;;;;5093009;28;20282;-76
2022/03/03 08:20:52;;;;;;;10.70;7.17;;;;;;;;;;5095608;28;20257;-76
2022/03/03 08:23:23;;;;;;;11.03;7.07;;;;;;;;;;5095154;28;20210;-75
2022/03/03 08:25:51;;;;;;;8.80;6.27;;;;;;;;;;5095763;28;20627;-75
2022/03/03 08:28:22;;;;;;;11.37;7.27;;;;;;;;;;5102897;28;20309;-75
2022/03/03 08:30:50;;;;;;;12.20;6.93;;;;;;;;;;5112337;28;20196;-75
2022/03/03 08:33:20;;;;;;;10.13;6.67;;;;;;;;;;5095202;28;20631;-75
2022/03/03 08:35:51;;;;;;;11.00;6.60;;;;;;;;;;5094689;28;20431;-75
2022/03/03 08:38:25;;;;;;;9.67;6.07;;;;;;;;;;5094927;28;20293;-76
2022/03/03 08:40:53;;;;;;;10.20;6.20;;;;;;;;;;5095041;28;20570;-75
2022/03/03 08:43:21;;;;;;;10.63;5.90;;;;;;;;;;5095067;28;20234;-76
2022/03/03 08:45:49;;;;;;;9.93;6.00;;;;;;;;;;5094843;28;20237;-76
2022/03/03 08:48:17;;;;;;;12.03;6.27;;;;;;;;;;5112772;28;20746;-76
2022/03/03 08:50:45;;;;;;;11.53;6.13;;;;;;;;;;5113347;28;20294;-75
2022/03/03 08:53:12;;;;;;;9.97;6.60;;;;;;;;;;5102449;28;20287;-76
2022/03/03 08:55:41;;;;;;;8.77;5.83;;;;;;;;;;5115139;28;20285;-76
2022/03/03 08:58:10;;;;;;;11.17;6.33;;;;;;;;;;5115054;28;20229;-75
2022/03/03 09:00:38;;;;;;;9.30;5.93;;;;;;;;;;5114429;28;20222;-76
2022/03/03 09:03:05;;;;;;;9.97;5.73;;;;;;;;;;5107730;28;20753;-75
2022/03/03 09:05:33;;;;;;;9.13;5.87;;;;;;;;;;5094697;28;20285;-76
2022/03/03 09:08:00;;;;;;;7.77;5.57;;;;;;;;;;5094362;28;20226;-76
2022/03/03 09:10:27;;;;;;;9.07;5.90;;;;;;;;;;5094603;28;20226;-75
2022/03/03 09:12:56;;;;;;;7.83;5.13;;;;;;;;;;5094231;28;20230;-76
2022/03/03 09:15:23;;;;;;;11.13;6.33;;;;;;;;;;5094160;28;20229;-76
2022/03/03 09:17:50;;;;;;;10.07;5.47;;;;;;;;;;5094501;28;20281;-75
2022/03/03 09:20:17;;;;;;;10.27;6.10;;;;;;;;;;5094512;28;20237;-75
2022/03/03 09:22:46;;;;;;;7.07;5.37;;;;;;;;;;5108230;28;20236;-75
2022/03/03 09:25:14;;;;;;;9.10;6.17;;;;;;;;;;5113966;28;20202;-76
2022/03/03 09:27:41;;;;;;;9.17;5.70;;;;;;;;;;5102197;28;20301;-76
2022/03/03 09:30:11;;;;;;;7.70;5.57;;;;;;;;;;5094061;28;20199;-76
2022/03/03 09:32:39;;;;;;;10.30;5.70;;;;;;;;;;5112982;28;20704;-76
2022/03/03 09:35:07;;;;;;;8.03;5.30;;;;;;;;;;5113752;28;20592;-75
2022/03/03 09:37:34;;;;;;;7.60;5.00;;;;;;;;;;5114388;28;20239;-75
2022/03/03 09:40:02;;;;;;;6.60;5.00;;;;;;;;;;5113479;28;20229;-76
2022/03/03 09:42:31;;;;;;;7.83;5.67;;;;;;;;;;5112480;28;20221;-76
2022/03/03 09:44:59;;;;;;;7.67;5.00;;;;;;;;;;5113508;28;20240;-76
2022/03/03 09:47:27;;;;;;;9.87;6.03;;;;;;;;;;5114464;28;20198;-75
2022/03/03 09:49:55;;;;;;;10.57;6.10;;;;;;;;;;5113998;28;20229;-76
2022/03/03 09:52:22;;;;;;;8.80;5.90;;;;;;;;;;5113167;28;20229;-75
2022/03/03 09:54:50;;;;;;;7.67;5.47;;;;;;;;;;5114073;28;20202;-76
2022/03/03 09:57:18;;;;;;;11.00;6.00;;;;;;;;;;5108967;28;20689;-75
2022/03/03 09:59:45;;;;;;;8.47;6.00;;;;;;;;;;5093775;28;20299;-76
2022/03/03 10:02:13;;;;;;;8.53;5.63;;;;;;;;;;5102853;28;20793;-76
2022/03/03 10:04:42;;;;;;;9.17;5.63;;;;;;;;;;5113644;28;20739;-76
2022/03/03 10:07:10;;;;;;;8.13;5.83;;;;;;;;;;5113239;28;20206;-76
2022/03/03 10:09:59;;;;;;;9.00;5.93;;;;;;;;;;5113951;28;20194;-76
2022/03/03 10:12:26;;;;;;;9.10;5.90;;;;;;;;;;5112947;28;20754;-76
2022/03/03 10:14:58;;;;;;;8.93;5.80;;;;;;;;;;5113640;28;20665;-75
2022/03/03 10:17:35;;;;;;;7.67;5.70;;;;;;;;;;5113309;28;20768;-76
2022/03/03 10:20:05;;;;;;;7.80;5.53;;;;;;;;;;5112815;28;20232;-76
2022/03/03 10:22:40;;;;;;;9.37;6.20;;;;;;;;;;5112743;28;20232;-76
2022/03/03 10:25:07;;;;;;;11.63;6.17;;;;;;;;;;5111907;28;20197;-76
2022/03/03 10:27:35;;;;;;;10.17;5.97;;;;;;;;;;5102074;28;20297;-76
2022/03/03 10:30:05;;;;;;;9.27;6.17;;;;;;;;;;5092867;28;20746;-75
2022/03/03 10:32:35;;;;;;;10.43;5.67;;;;;;;;;;5092719;28;20285;-75
2022/03/03 10:35:13;;;;;;;9.40;5.77;;;;;;;;;;5092574;28;20237;-75
2022/03/03 10:37:41;;;;;;;9.07;5.93;;;;;;;;;;5099556;28;20289;-76
2022/03/03 10:40:11;;;;;;;7.37;5.70;;;;;;;;;;5112368;28;20387;-75
2022/03/03 10:42:39;;;;;;;9.70;6.17;;;;;;;;;;5112872;28;20317;-76
2022/03/03 10:45:07;;;;;;;11.27;7.07;;;;;;;;;;5113235;28;20194;-76
2022/03/03 10:47:35;;;;;;;9.90;6.67;;;;;;;;;;5113151;28;20198;-76
2022/03/03 10:50:02;;;;;;;10.03;6.90;;;;;;;;;;5107588;28;20595;-76
2022/03/03 10:52:32;;;;;;;12.07;7.20;;;;;;;;;;5092293;28;20194;-76
2022/03/03 10:55:01;;;;;;;11.37;6.87;;;;;;;;;;5092938;28;20202;-76
2022/03/03 10:57:36;;;;;;;13.30;7.00;;;;;;;;;;5092660;28;20202;-76
2022/03/03 11:00:06;;;;;;;11.50;6.97;;;;;;;;;;5092568;28;20959;-76
2022/03/03 11:02:34;;;;;;;10.73;7.27;;;;;;;;;;5092156;28;20249;-76
2022/03/03 11:05:01;;;;;;;12.73;7.80;;;;;;;;;;5092276;28;20237;-76
2022/03/03 11:07:31;;;;;;;13.17;7.87;;;;;;;;;;5093350;28;20651;-75
2022/03/03 11:09:58;;;;;;;13.23;8.07;;;;;;;;;;5112234;28;20229;-75
2022/03/03 11:12:27;;;;;;;11.47;8.13;;;;;;;;;;5112395;28;20198;-75
2022/03/03 11:14:55;;;;;;;14.30;8.93;;;;;;;;;;5112790;28;20237;-76
2022/03/03 11:17:22;;;;;;;12.83;8.60;;;;;;;;;;5112507;28;20197;-76
2022/03/03 11:19:51;;;;;;;16.73;9.77;;;;;;;;;;5112666;28;20198;-76
2022/03/03 11:22:19;;;;;;;15.30;9.40;;;;;;;;;;5112454;28;20228;-75
2022/03/03 11:24:48;;;;;;;13.87;9.27;;;;;;;;;;5112255;28;20193;-76
2022/03/03 11:27:16;;;;;;;15.83;9.90;;;;;;;;;;5102902;28;20289;-75
2022/03/03 11:29:43;;;;;;;15.07;9.60;;;;;;;;;;5103761;28;20737;-76
2022/03/03 11:32:15;;;;;;;12.63;9.30;;;;;;;;;;5112596;28;20277;-75
2022/03/03 11:34:44;;;;;;;12.20;8.63;;;;;;;;;;5112102;28;20250;-75
2022/03/03 11:37:19;;;;;;;14.90;9.33;;;;;;;;;;5112043;28;20197;-75
2022/03/03 11:39:49;;;;;;;14.17;9.70;;;;;;;;;;5110893;28;20288;-75
2022/03/03 11:42:18;;;;;;;15.80;9.70;;;;;;;;;;5111845;28;20270;-76
2022/03/03 11:44:45;;;;;;;13.40;9.20;;;;;;;;;;5111535;28;20288;-76
2022/03/03 11:47:19;;;;;;;14.80;9.40;;;;;;;;;;5111832;28;20237;-76
2022/03/03 11:50:00;;;;;;;12.67;9.07;;;;;;;;;;5111939;28;20201;-76
2022/03/03 11:52:27;;;;;;;12.13;8.27;;;;;;;;;;5111290;28;20720;-75
2022/03/03 11:54:57;;;;;;;15.80;9.60;;;;;;;;;;5095470;28;20244;-76
2022/03/03 11:57:27;;;;;;;13.87;9.07;;;;;;;;;;5095771;28;20669;-75
2022/03/03 11:59:55;;;;;;;11.80;9.00;;;;;;;;;;5095720;28;20255;-76
2022/03/03 12:02:29;;;;;;;12.90;9.07;;;;;;;;;;5106481;28;20274;-76
2022/03/03 12:05:15;;;;;;;14.07;9.17;;;;;;;;;;5115917;28;20197;-76
2022/03/03 12:07:42;;;;;;;13.07;8.60;;;;;;;;;;5115183;28;20700;-76
2022/03/03 12:10:22;;;;;;;11.13;8.20;;;;;;;;;;5116262;28;20201;-76
2022/03/03 12:12:50;;;;;;;10.33;7.67;;;;;;;;;;5095419;28;20683;-75
2022/03/03 12:15:17;;;;;;;12.30;7.80;;;;;;;;;;5095475;28;20296;-75
2022/03/03 12:17:46;;;;;;;10.43;7.37;;;;;;;;;;5095460;28;20268;-75
2022/03/03 12:20:32;;;;;;;12.23;7.40;;;;;;;;;;5102709;28;20193;-76
2022/03/03 12:23:07;;;;;;;10.80;7.40;;;;;;;;;;5115178;28;20261;-76
2022/03/03 12:25:54;;;;;;;10.10;7.53;;;;;;;;;;5114268;28;20290;-76
2022/03/03 12:28:24;;;;;;;11.97;7.37;;;;;;;;;;5094921;28;20292;-75
2022/03/03 12:30:52;;;;;;;10.13;6.70;;;;;;;;;;5095426;28;20263;-75
2022/03/03 12:33:23;;;;;;;9.83;6.50;;;;;;;;;;5095573;28;20234;-75
2022/03/03 12:35:50;;;;;;;7.10;5.60;;;;;;;;;;5094688;28;20328;-76
2022/03/03 12:38:18;;;;;;;7.73;5.57;;;;;;;;;;5095039;28;20285;-75
2022/03/03 12:40:45;;;;;;;7.60;6.03;;;;;;;;;;5095129;28;20289;-75
2022/03/03 12:43:15;;;;;;;9.53;6.73;;;;;;;;;;5098292;28;20304;-75
2022/03/03 12:45:43;;;;;;;7.83;6.07;;;;;;;;;;5114638;28;20289;-76
2022/03/03 12:48:11;;;;;;;8.43;5.43;;;;;;;;;;5079807;28;20680;-75
2022/03/03 12:50:40;;;;;;;7.13;5.47;;;;;;;;;;5114352;28;20634;-76
2022/03/03 12:53:07;;;;;;;7.00;5.20;;;;;;;;;;5115314;28;20595;-75
2022/03/03 12:55:35;;;;;;;7.40;4.93;;;;;;;;;;5115143;28;20201;-75
2022/03/03 12:58:04;;;;;;;5.30;4.03;;;;;;;;;;5115077;28;20194;-75
2022/03/03 13:00:36;;;;;;;7.07;5.17;;;;;;;;;;5095024;28;20261;-75
2022/03/03 13:03:05;;;;;;;6.83;4.97;;;;;;;;;;5094140;28;20222;-75
2022/03/03 13:05:33;;;;;;;6.93;4.80;;;;;;;;;;5094126;28;20230;-75
2022/03/03 13:08:00;;;;;;;5.87;4.53;;;;;;;;;;5094487;28;20282;-75
2022/03/03 13:10:28;;;;;;;7.33;5.13;;;;;;;;;;5094385;28;20680;-76
2022/03/03 13:12:56;;;;;;;6.13;4.90;;;;;;;;;;5094563;28;20283;-76
2022/03/03 13:15:31;;;;;;;6.77;4.73;;;;;;;;;;5106384;28;20232;-76
2022/03/03 13:17:59;;;;;;;6.07;4.63;;;;;;;;;;5106548;28;20202;-76
2022/03/03 13:20:32;;;;;;;6.40;4.37;;;;;;;;;;5094039;28;20285;-75
2022/03/03 13:22:59;;;;;;;5.00;4.03;;;;;;;;;;5094176;28;20258;-76
2022/03/03 13:25:27;;;;;;;5.17;4.47;;;;;;;;;;5094464;28;20237;-76
2022/03/03 13:27:54;;;;;;;5.63;4.40;;;;;;;;;;5093946;28;20249;-75
2022/03/03 13:30:22;;;;;;;7.93;4.87;;;;;;;;;;5093706;28;20281;-75
2022/03/03 13:32:49;;;;;;;6.50;4.27;;;;;;;;;;5094104;28;20203;-75
2022/03/03 13:35:17;;;;;;;5.33;4.57;;;;;;;;;;5093378;28;20249;-76
2022/03/03 13:37:47;;;;;;;5.47;4.60;;;;;;;;;;5094074;28;20237;-76
2022/03/03 13:40:18;;;;;;;6.03;4.97;;;;;;;;;;5094042;28;20195;-76
2022/03/03 13:42:45;;;;;;;6.03;4.47;;;;;;;;;;5093865;28;20257;-75
2022/03/03 13:45:13;;;;;;;4.40;3.97;;;;;;;;;;5093376;28;20300;-75
2022/03/03 13:47:42;;;;;;;5.93;4.50;;;;;;;;;;5100204;28;20232;-76
2022/03/03 13:50:10;;;;;;;5.70;4.63;;;;;;;;;;5113938;28;20595;-75
2022/03/03 13:52:38;;;;;;;5.87;4.57;;;;;;;;;;5113024;28;20240;-76
2022/03/03 13:55:14;;;;;;;5.73;4.60;;;;;;;;;;5113802;28;20284;-75
2022/03/03 13:57:42;;;;;;;5.37;4.77;;;;;;;;;;5114040;28;20225;-75
2022/03/03 14:00:12;;;;;;;5.77;4.40;;;;;;;;;;5094268;28;20214;-75
2022/03/03 14:02:49;;;;;;;5.27;4.30;;;;;;;;;;5093370;28;20272;-75
2022/03/03 14:05:17;;;;;;;6.83;4.77;;;;;;;;;;5093083;28;20548;-75
2022/03/03 14:07:51;;;;;;;6.23;4.60;;;;;;;;;;5093395;28;20226;-76
2022/03/03 14:10:20;;;;;;;6.10;4.80;;;;;;;;;;5110744;28;20198;-76
2022/03/03 14:13:04;;;;;;;4.80;4.20;;;;;;;;;;5112618;28;20218;-75
2022/03/03 14:15:31;;;;;;;5.40;4.37;;;;;;;;;;5112418;28;20201;-75
2022/03/03 14:17:58;;;;;;;5.70;4.00;;;;;;;;;;5112712;28;20229;-75
2022/03/03 14:20:26;;;;;;;6.47;4.20;;;;;;;;;;5113362;28;20612;-76
2022/03/03 14:22:56;;;;;;;6.27;4.80;;;;;;;;;;5113210;28;20717;-75
2022/03/03 14:25:25;;;;;;;5.60;4.30;;;;;;;;;;5112019;28;20300;-76
2022/03/03 14:27:52;;;;;;;5.97;4.90;;;;;;;;;;5096476;28;20298;-75
2022/03/03 14:30:19;;;;;;;4.63;3.87;;;;;;;;;;5093242;28;20198;-76
2022/03/03 14:32:47;;;;;;;6.17;4.87;;;;;;;;;;5092675;28;20287;-76
2022/03/03 14:35:14;;;;;;;6.50;4.73;;;;;;;;;;5092649;28;20804;-75
2022/03/03 14:37:42;;;;;;;6.40;4.50;;;;;;;;;;5092888;28;20289;-76
2022/03/03 14:40:10;;;;;;;5.53;4.50;;;;;;;;;;5092978;28;20203;-75
2022/03/03 14:42:39;;;;;;;6.60;5.80;;;;;;;;;;5094701;28;20330;-75